createdAt,value
2022-08-19T00:01:52.953Z,19.49
2022-08-19T00:04:25.686Z,19.48
2022-08-19T00:06:54.985Z,19.47
2022-08-19T00:09:24.641Z,19.49
2022-08-19T00:11:56.745Z,19.50
2022-08-19T00:14:25.830Z,19.53
2022-08-19T00:16:55.722Z,19.53
2022-08-19T00:19:25.234Z,19.50
2022-08-19T00:21:56.376Z,19.49
2022-08-19T00:24:24.674Z,19.47
2022-08-19T00:26:53.213Z,19.44
2022-08-19T00:29:23.087Z,19.45
2022-08-19T00:31:54.018Z,19.48
2022-08-19T00:34:22.195Z,19.47
2022-08-19T00:36:50.168Z,19.51
2022-08-19T00:39:19.971Z,19.53
2022-08-19T00:41:49.775Z,19.53
2022-08-19T00:44:21.449Z,19.55
2022-08-19T00:46:58.506Z,19.55
2022-08-19T00:49:31.813Z,19.56
2022-08-19T00:52:03.864Z,19.58
2022-08-19T00:54:34.259Z,19.59
2022-08-19T00:57:04.976Z,19.61
2022-08-19T01:00:00.992Z,19.61
2022-08-19T01:02:21.139Z,19.60
2022-08-19T01:04:49.011Z,19.59
2022-08-19T01:07:19.744Z,19.57
2022-08-19T01:09:49.423Z,19.55
2022-08-19T01:12:18.815Z,19.48
2022-08-19T01:14:47.650Z,19.50
2022-08-19T01:17:17.263Z,19.51
2022-08-19T01:19:47.760Z,19.51
2022-08-19T01:22:28.666Z,19.45
2022-08-19T01:24:59.728Z,19.45
2022-08-19T01:27:29.590Z,19.40
2022-08-19T01:30:09.434Z,19.36
2022-08-19T01:32:37.574Z,19.35
2022-08-19T01:35:05.881Z,19.37
2022-08-19T01:37:44.956Z,19.34
2022-08-19T01:40:14.910Z,19.31
2022-08-19T01:42:43.194Z,19.26
2022-08-19T01:45:12.150Z,19.21
2022-08-19T01:47:40.711Z,19.17
2022-08-19T01:50:11.734Z,19.14
2022-08-19T01:52:41.332Z,19.12
2022-08-19T01:55:12.768Z,19.06
2022-08-19T01:57:45.030Z,18.98
2022-08-19T02:00:16.462Z,18.98
2022-08-19T02:02:44.998Z,18.94
2022-08-19T02:05:14.078Z,18.92
2022-08-19T02:07:43.039Z,18.92
2022-08-19T02:10:16.728Z,18.94
2022-08-19T02:12:46.614Z,18.96
2022-08-19T02:15:15.943Z,18.91
2022-08-19T02:17:44.670Z,18.94
2022-08-19T02:20:14.450Z,18.92
2022-08-19T02:22:43.468Z,18.91
2022-08-19T02:25:12.341Z,18.87
2022-08-19T02:27:40.978Z,18.88
2022-08-19T02:30:20.137Z,18.88
2022-08-19T02:32:48.073Z,18.87
2022-08-19T02:35:16.568Z,18.80
2022-08-19T02:38:02.363Z,18.78
2022-08-19T02:40:30.809Z,18.81
2022-08-19T02:42:58.941Z,18.81
2022-08-19T02:45:28.430Z,18.82
2022-08-19T02:47:58.272Z,18.77
2022-08-19T02:50:26.793Z,18.75
2022-08-19T02:52:55.012Z,18.74
2022-08-19T02:55:22.930Z,18.76
2022-08-19T02:57:51.114Z,18.73
2022-08-19T03:00:19.138Z,18.75
2022-08-19T03:02:49.934Z,18.72
2022-08-19T03:05:18.623Z,18.70
2022-08-19T03:07:53.246Z,18.68
2022-08-19T03:10:21.354Z,18.68
2022-08-19T03:12:49.255Z,18.67
2022-08-19T03:15:17.403Z,18.64
2022-08-19T03:17:45.441Z,18.63
2022-08-19T03:20:14.931Z,18.62
2022-08-19T03:22:43.254Z,18.60
2022-08-19T03:25:13.050Z,18.57
2022-08-19T03:27:40.883Z,18.55
2022-08-19T03:30:11.668Z,18.55
2022-08-19T03:32:45.371Z,18.51
2022-08-19T03:35:14.925Z,18.52
2022-08-19T03:37:42.844Z,18.54
2022-08-19T03:40:16.474Z,18.53
2022-08-19T03:42:49.185Z,18.51
2022-08-19T03:45:17.576Z,18.53
2022-08-19T03:47:47.725Z,18.50
2022-08-19T03:50:18.218Z,18.47
2022-08-19T03:52:51.636Z,18.45
2022-08-19T03:55:19.873Z,18.41
2022-08-19T03:57:49.713Z,18.43
2022-08-19T04:00:18.617Z,18.43
2022-08-19T04:02:58.336Z,18.42
2022-08-19T04:05:30.599Z,18.40
2022-08-19T04:08:00.422Z,18.40
2022-08-19T04:10:29.194Z,18.37
2022-08-19T04:12:57.089Z,18.40
2022-08-19T04:15:25.149Z,18.41
2022-08-19T04:17:53.153Z,18.39
2022-08-19T04:20:20.971Z,18.39
2022-08-19T04:22:50.333Z,18.38
2022-08-19T04:25:18.634Z,18.39
2022-08-19T04:27:47.496Z,18.39
2022-08-19T04:30:16.312Z,18.38
2022-08-19T04:32:44.692Z,18.39
2022-08-19T04:35:18.474Z,18.39
2022-08-19T04:37:48.047Z,18.35
2022-08-19T04:40:35.070Z,18.39
2022-08-19T04:43:03.107Z,18.43
2022-08-19T04:45:39.696Z,18.45
2022-08-19T04:48:27.337Z,18.46
2022-08-19T04:50:59.120Z,18.45
2022-08-19T04:53:29.858Z,18.46
2022-08-19T04:56:09.962Z,18.48
2022-08-19T04:58:39.334Z,18.52
2022-08-19T05:01:07.331Z,18.51
2022-08-19T05:03:35.866Z,18.51
2022-08-19T05:06:08.538Z,18.53
2022-08-19T05:08:38.144Z,18.56
2022-08-19T05:11:14.156Z,18.57
2022-08-19T05:13:43.439Z,18.55
2022-08-19T05:16:12.392Z,18.58
2022-08-19T05:18:58.206Z,18.58
2022-08-19T05:21:44.570Z,18.60
2022-08-19T05:24:13.817Z,18.62
2022-08-19T05:26:47.371Z,18.66
2022-08-19T05:29:16.488Z,18.66
2022-08-19T05:31:45.088Z,18.70
2022-08-19T05:34:18.285Z,18.73
2022-08-19T05:36:48.826Z,18.72
2022-08-19T05:39:19.406Z,18.73
2022-08-19T05:41:50.544Z,18.72
2022-08-19T05:44:19.278Z,18.73
2022-08-19T05:46:48.188Z,18.72
2022-08-19T05:49:17.941Z,18.77
2022-08-19T05:51:46.456Z,18.83
2022-08-19T05:54:14.963Z,18.87
2022-08-19T05:56:43.565Z,18.91
2022-08-19T05:59:13.370Z,18.88
2022-08-19T06:01:44.008Z,18.92
2022-08-19T06:04:11.988Z,18.96
2022-08-19T06:06:40.076Z,19.00
2022-08-19T06:09:11.023Z,19.06
2022-08-19T06:11:41.371Z,19.08
2022-08-19T06:14:13.687Z,19.12
2022-08-19T06:16:46.537Z,19.17
2022-08-19T06:19:17.870Z,19.21
2022-08-19T06:21:48.451Z,19.28
2022-08-19T06:24:19.895Z,19.31
2022-08-19T06:26:51.492Z,19.32
2022-08-19T06:29:24.286Z,19.29
2022-08-19T06:31:56.257Z,19.35
2022-08-19T06:34:24.270Z,19.34
2022-08-19T06:36:54.169Z,19.33
2022-08-19T06:39:24.018Z,19.37
2022-08-19T06:41:58.136Z,19.40
2022-08-19T06:44:30.433Z,19.36
2022-08-19T06:47:01.254Z,19.38
2022-08-19T06:49:38.398Z,19.46
2022-08-19T06:52:07.464Z,19.48
2022-08-19T06:54:45.952Z,19.50
2022-08-19T06:57:23.427Z,19.47
2022-08-19T06:59:51.389Z,19.46
2022-08-19T07:02:22.097Z,19.46
2022-08-19T07:04:52.770Z,19.52
2022-08-19T07:07:22.531Z,19.68
2022-08-19T07:09:58.682Z,19.80
2022-08-19T07:12:32.456Z,19.94
2022-08-19T07:15:00.527Z,19.94
2022-08-19T07:17:30.983Z,19.85
2022-08-19T07:20:06.798Z,19.88
2022-08-19T07:22:37.781Z,19.89
2022-08-19T07:25:07.611Z,19.91
2022-08-19T07:27:36.035Z,19.97
2022-08-19T07:30:05.911Z,19.99
2022-08-19T07:32:35.533Z,20.05
2022-08-19T07:35:04.453Z,20.13
2022-08-19T07:37:33.515Z,20.24
2022-08-19T07:40:02.062Z,20.31
2022-08-19T07:42:30.515Z,20.36
2022-08-19T07:44:58.779Z,20.38
2022-08-19T07:47:49.615Z,20.42
2022-08-19T07:50:19.349Z,20.41
2022-08-19T07:52:49.127Z,20.36
2022-08-19T07:55:41.039Z,20.35
2022-08-19T07:58:09.703Z,20.47
2022-08-19T08:00:38.009Z,20.50
2022-08-19T08:03:05.970Z,20.58
2022-08-19T08:05:52.649Z,20.62
2022-08-19T08:08:37.710Z,20.53
2022-08-19T08:11:15.378Z,20.59
2022-08-19T08:13:44.201Z,20.58
2022-08-19T08:16:14.400Z,20.55
2022-08-19T08:18:47.839Z,20.57
2022-08-19T08:21:20.250Z,20.57
2022-08-19T08:23:48.561Z,20.58
2022-08-19T08:26:17.236Z,20.55
2022-08-19T08:28:49.503Z,20.60
2022-08-19T08:31:17.551Z,20.68
2022-08-19T08:33:45.776Z,20.68
2022-08-19T08:36:15.831Z,20.76
2022-08-19T08:38:47.374Z,20.91
2022-08-19T08:41:24.579Z,20.95
2022-08-19T08:43:54.475Z,21.10
2022-08-19T08:46:30.735Z,21.28
2022-08-19T08:49:09.921Z,21.37
2022-08-19T08:54:20.309Z,21.63
2022-08-19T08:56:51.621Z,21.73
2022-08-19T08:59:25.660Z,21.86
2022-08-19T09:01:53.710Z,21.97
2022-08-19T09:04:21.397Z,21.91
2022-08-19T09:07:01.363Z,21.92
2022-08-19T09:09:50.506Z,21.95
2022-08-19T09:12:28.822Z,21.95
2022-08-19T09:15:02.195Z,21.89
2022-08-19T09:17:34.567Z,21.88
2022-08-19T09:20:09.628Z,21.85
2022-08-19T09:22:39.254Z,21.90
2022-08-19T09:25:11.261Z,21.88
2022-08-19T09:27:42.264Z,21.85
2022-08-19T09:30:14.180Z,21.85
2022-08-19T09:32:43.916Z,21.87
2022-08-19T09:35:12.401Z,21.98
2022-08-19T09:37:40.605Z,22.13
2022-08-19T09:40:12.413Z,22.22
2022-08-19T09:42:50.334Z,22.24
2022-08-19T09:45:23.812Z,22.35
2022-08-19T09:47:54.578Z,22.38
2022-08-19T09:50:24.596Z,22.55
2022-08-19T09:52:55.695Z,22.56
2022-08-19T09:55:32.095Z,22.54
2022-08-19T09:58:02.372Z,22.58
2022-08-19T10:00:31.335Z,22.82
2022-08-19T10:02:59.409Z,23.02
2022-08-19T10:05:44.548Z,23.46
2022-08-19T10:08:18.930Z,23.93
2022-08-19T10:10:51.704Z,23.98
2022-08-19T10:13:23.113Z,24.02
2022-08-19T10:15:52.252Z,23.82
2022-08-19T10:18:22.200Z,23.53
2022-08-19T10:20:52.753Z,23.19
2022-08-19T10:23:22.842Z,23.11
2022-08-19T10:25:54.746Z,22.95
2022-08-19T10:28:24.162Z,22.68
2022-08-19T10:30:52.019Z,22.63
2022-08-19T10:33:39.382Z,22.63
2022-08-19T10:36:10.568Z,22.60
2022-08-19T10:38:39.147Z,22.57
2022-08-19T10:41:25.246Z,22.42
2022-08-19T10:43:55.319Z,22.26
2022-08-19T10:46:25.230Z,22.15
2022-08-19T10:48:53.787Z,22.02
2022-08-19T10:51:48.069Z,21.96
2022-08-19T10:54:17.201Z,21.91
2022-08-19T10:57:00.979Z,21.79
2022-08-19T10:59:35.805Z,21.67
2022-08-19T11:02:05.797Z,21.60
2022-08-19T11:04:34.306Z,21.61
2022-08-19T11:07:04.563Z,21.67
2022-08-19T11:09:34.228Z,21.67
2022-08-19T11:12:04.843Z,21.76
2022-08-19T11:14:35.026Z,21.86
2022-08-19T11:17:03.717Z,21.95
2022-08-19T11:19:31.961Z,21.99
2022-08-19T11:22:00.872Z,22.03
2022-08-19T11:24:29.556Z,22.13
2022-08-19T11:27:05.802Z,22.19
2022-08-19T11:29:35.462Z,22.25
2022-08-19T11:32:07.118Z,22.28
2022-08-19T11:34:36.398Z,22.35
2022-08-19T11:37:06.959Z,22.34
2022-08-19T11:39:36.534Z,22.38
2022-08-19T11:42:28.175Z,22.41
2022-08-19T11:44:56.720Z,22.50
2022-08-19T11:47:25.202Z,22.67
2022-08-19T11:49:54.465Z,22.68
2022-08-19T11:52:22.318Z,22.75
2022-08-19T11:54:50.503Z,22.80
2022-08-19T11:57:20.751Z,22.86
2022-08-19T11:59:52.626Z,22.96
2022-08-19T12:02:20.840Z,23.05
2022-08-19T12:04:49.055Z,23.16
2022-08-19T12:07:17.089Z,23.29
2022-08-19T12:09:44.949Z,23.27
2022-08-19T12:12:14.158Z,23.20
2022-08-19T12:14:43.387Z,23.19
2022-08-19T12:17:12.439Z,23.09
2022-08-19T12:19:41.971Z,23.02
2022-08-19T12:22:09.821Z,23.03
2022-08-19T12:24:37.694Z,23.06
2022-08-19T12:27:05.862Z,23.10
2022-08-19T12:29:41.236Z,23.16
2022-08-19T12:32:12.249Z,23.09
2022-08-19T12:34:41.001Z,23.13
2022-08-19T12:37:09.534Z,23.16
2022-08-19T12:39:40.290Z,23.22
2022-08-19T12:42:09.731Z,23.25
2022-08-19T12:44:37.998Z,23.24
2022-08-19T12:47:07.651Z,23.34
2022-08-19T12:49:54.568Z,23.36
2022-08-19T12:52:25.288Z,23.39
2022-08-19T12:54:55.549Z,23.43
2022-08-19T12:57:32.212Z,23.49
2022-08-19T13:00:05.567Z,23.58
2022-08-19T13:02:38.999Z,23.66
2022-08-19T13:05:12.252Z,23.67
2022-08-19T13:07:42.256Z,23.63
2022-08-19T13:10:13.472Z,23.77
2022-08-19T13:12:43.045Z,23.93
2022-08-19T13:15:12.127Z,24.18
2022-08-19T13:17:40.894Z,24.42
2022-08-19T13:20:12.636Z,24.54
2022-08-19T13:22:40.985Z,24.61
2022-08-19T13:25:10.741Z,24.57
2022-08-19T13:27:39.484Z,24.48
2022-08-19T13:30:27.336Z,24.50
2022-08-19T13:33:15.651Z,24.43
2022-08-19T13:35:48.753Z,24.30
2022-08-19T13:38:19.189Z,24.23
2022-08-19T13:40:50.622Z,24.22
2022-08-19T13:43:22.793Z,24.21
2022-08-19T13:45:56.953Z,24.24
2022-08-19T13:48:27.416Z,24.22
2022-08-19T13:50:57.143Z,24.18
2022-08-19T13:53:25.749Z,24.22
2022-08-19T13:55:54.715Z,24.25
2022-08-19T13:58:22.860Z,24.25
2022-08-19T14:00:51.069Z,24.23
2022-08-19T14:03:18.984Z,24.30
2022-08-19T14:05:47.138Z,24.40
2022-08-19T14:08:16.384Z,24.49
2022-08-19T14:10:45.633Z,24.63
2022-08-19T14:13:16.938Z,24.91
2022-08-19T14:15:45.810Z,25.25
2022-08-19T14:18:13.779Z,25.56
2022-08-19T14:20:41.907Z,25.69
2022-08-19T14:23:09.909Z,25.90
2022-08-19T14:25:39.114Z,25.96
2022-08-19T14:28:08.253Z,26.11
2022-08-19T14:30:38.698Z,26.30
2022-08-19T14:33:08.073Z,26.36
2022-08-19T14:35:36.800Z,26.28
2022-08-19T14:38:05.841Z,26.23
2022-08-19T14:40:35.859Z,26.20
2022-08-19T14:43:06.442Z,26.21
2022-08-19T14:45:36.770Z,26.09
2022-08-19T14:48:05.700Z,26.07
2022-08-19T14:50:34.141Z,26.01
2022-08-19T14:53:11.940Z,25.89
2022-08-19T14:55:43.921Z,25.74
2022-08-19T14:58:29.012Z,25.60
2022-08-19T15:00:59.855Z,25.46
2022-08-19T15:03:28.026Z,25.39
2022-08-19T15:05:57.679Z,25.30
2022-08-19T15:08:25.810Z,25.09
2022-08-19T15:10:54.368Z,24.99
2022-08-19T15:13:24.214Z,24.85
2022-08-19T15:15:52.693Z,24.68
2022-08-19T15:18:23.980Z,24.59
2022-08-19T15:20:52.572Z,24.44
2022-08-19T15:23:21.360Z,24.38
2022-08-19T15:25:50.148Z,24.40
2022-08-19T15:28:18.540Z,24.36
2022-08-19T15:30:48.492Z,24.31
2022-08-19T15:33:17.215Z,24.29
2022-08-19T15:35:45.950Z,24.22
2022-08-19T15:38:14.847Z,24.22
2022-08-19T15:40:43.555Z,24.19
2022-08-19T15:43:11.554Z,24.08
2022-08-19T15:45:40.352Z,24.04
2022-08-19T15:48:09.855Z,23.98
2022-08-19T15:50:38.767Z,23.90
2022-08-19T15:53:10.773Z,23.77
2022-08-19T15:55:45.231Z,23.70
2022-08-19T15:58:33.333Z,23.62
2022-08-19T16:01:21.371Z,23.62
2022-08-19T16:04:11.025Z,23.59
2022-08-19T16:06:43.790Z,23.54
2022-08-19T16:09:13.117Z,23.50
2022-08-19T16:11:45.468Z,23.48
2022-08-19T16:14:14.855Z,23.48
2022-08-19T16:16:47.081Z,23.46
2022-08-19T16:19:18.103Z,23.41
2022-08-19T16:21:48.062Z,23.39
2022-08-19T16:24:18.992Z,23.38
2022-08-19T16:26:47.505Z,23.31
2022-08-19T16:29:22.124Z,23.26
2022-08-19T16:32:03.232Z,23.11
2022-08-19T16:34:32.819Z,23.05
2022-08-19T16:37:02.218Z,23.07
2022-08-19T16:39:30.855Z,23.04
2022-08-19T16:41:59.197Z,22.97
2022-08-19T16:44:29.645Z,22.86
2022-08-19T16:47:00.775Z,22.76
2022-08-19T16:49:53.052Z,22.65
2022-08-19T16:52:21.450Z,22.51
2022-08-19T16:54:50.196Z,22.46
2022-08-19T16:57:19.381Z,22.38
2022-08-19T16:59:49.237Z,22.35
2022-08-19T17:02:18.462Z,22.23
2022-08-19T17:04:57.098Z,22.08
2022-08-19T17:07:28.088Z,21.98
2022-08-19T17:09:56.218Z,21.90
2022-08-19T17:12:30.798Z,21.73
2022-08-19T17:15:01.145Z,21.66
2022-08-19T17:17:29.727Z,21.47
2022-08-19T17:19:58.019Z,21.38
2022-08-19T17:22:27.805Z,21.16
2022-08-19T17:24:57.906Z,21.01
2022-08-19T17:27:27.243Z,20.92
2022-08-19T17:30:00.531Z,20.81
2022-08-19T17:32:28.737Z,20.76
2022-08-19T17:34:56.691Z,20.67
2022-08-19T17:37:24.686Z,20.61
2022-08-19T17:39:54.000Z,20.56
2022-08-19T17:42:21.882Z,20.53
2022-08-19T17:44:50.393Z,20.45
2022-08-19T17:47:19.409Z,20.43
2022-08-19T17:49:47.830Z,20.43
2022-08-19T17:52:15.708Z,20.41
2022-08-19T17:54:43.786Z,20.37
2022-08-19T17:57:14.257Z,20.35
2022-08-19T17:59:42.126Z,20.24
2022-08-19T18:02:12.248Z,20.25
2022-08-19T18:04:41.407Z,20.27
2022-08-19T18:07:11.733Z,20.24
2022-08-19T18:09:42.981Z,20.27
2022-08-19T18:12:24.536Z,20.26
2022-08-19T18:14:52.707Z,20.25
2022-08-19T18:17:23.296Z,20.14
2022-08-19T18:19:51.336Z,20.12
2022-08-19T18:22:27.312Z,20.08
2022-08-19T18:24:56.332Z,20.04
2022-08-19T18:27:26.088Z,20.01
2022-08-19T18:30:00.049Z,19.97
2022-08-19T18:32:31.517Z,19.98
2022-08-19T18:35:01.309Z,19.96
2022-08-19T18:37:29.452Z,19.94
2022-08-19T18:40:15.054Z,19.88
2022-08-19T18:43:03.221Z,19.83
2022-08-19T18:45:49.042Z,19.82
2022-08-19T18:48:34.595Z,19.75
2022-08-19T18:51:03.482Z,19.67
2022-08-19T18:53:34.376Z,19.65
2022-08-19T18:56:02.768Z,19.52
2022-08-19T18:58:33.934Z,19.48
2022-08-19T19:01:09.443Z,19.49
2022-08-19T19:03:37.954Z,19.47
2022-08-19T19:06:07.487Z,19.44
2022-08-19T19:08:35.731Z,19.46
2022-08-19T19:11:06.119Z,19.42
2022-08-19T19:13:37.207Z,19.41
2022-08-19T19:16:05.649Z,19.39
2022-08-19T19:18:34.400Z,19.34
2022-08-19T19:21:02.902Z,19.32
2022-08-19T19:23:31.103Z,19.26
2022-08-19T19:25:59.610Z,19.20
2022-08-19T19:28:28.995Z,19.15
2022-08-19T19:30:59.261Z,19.10
2022-08-19T19:33:27.754Z,19.04
2022-08-19T19:35:55.773Z,18.99
2022-08-19T19:38:24.055Z,18.94
2022-08-19T19:40:51.908Z,18.91
2022-08-19T19:43:19.750Z,18.84
2022-08-19T19:45:49.191Z,18.80
2022-08-19T19:48:18.905Z,18.78
2022-08-19T19:50:53.986Z,18.75
2022-08-19T19:53:24.723Z,18.70
2022-08-19T19:55:55.107Z,18.67
2022-08-19T19:58:28.717Z,18.66
2022-08-19T20:00:58.194Z,18.63
2022-08-19T20:03:29.872Z,18.61
2022-08-19T20:05:59.549Z,18.56
2022-08-19T20:08:45.471Z,18.54
2022-08-19T20:11:17.607Z,18.52
2022-08-19T20:13:45.444Z,18.49
2022-08-19T20:16:13.589Z,18.45
2022-08-19T20:18:43.693Z,18.43
2022-08-19T20:21:13.630Z,18.42
2022-08-19T20:23:41.574Z,18.42
2022-08-19T20:26:19.296Z,18.42
2022-08-19T20:29:13.646Z,18.38
2022-08-19T20:31:57.640Z,18.36
2022-08-19T20:34:29.012Z,18.35
2022-08-19T20:36:57.222Z,18.32
2022-08-19T20:39:24.895Z,18.40
2022-08-19T20:41:52.705Z,18.56
2022-08-19T20:44:22.616Z,18.68
2022-08-19T20:46:57.485Z,18.75
2022-08-19T20:49:32.949Z,18.79
2022-08-19T20:52:01.897Z,18.86
2022-08-19T20:54:30.425Z,18.91
2022-08-19T20:56:58.649Z,18.91
2022-08-19T20:59:27.339Z,18.96
2022-08-19T21:01:57.548Z,18.97
2022-08-19T21:04:27.217Z,18.84
2022-08-19T21:06:56.535Z,18.90
2022-08-19T21:09:25.249Z,18.85
2022-08-19T21:11:53.909Z,18.80
2022-08-19T21:14:24.814Z,18.82
2022-08-19T21:16:54.129Z,18.79
2022-08-19T21:19:24.161Z,18.87
2022-08-19T21:21:53.614Z,18.90
2022-08-19T21:24:31.616Z,18.84
2022-08-19T21:27:00.884Z,18.76
2022-08-19T21:29:32.327Z,18.80
2022-08-19T21:32:03.888Z,18.72
2022-08-19T21:34:31.938Z,18.71
2022-08-19T21:37:01.296Z,18.80
2022-08-19T21:39:31.777Z,18.72
2022-08-19T21:42:00.957Z,18.74
2022-08-19T21:44:28.872Z,18.75
2022-08-19T21:47:02.135Z,18.74
2022-08-19T21:49:31.065Z,18.71
2022-08-19T21:52:03.678Z,18.69
2022-08-19T21:54:38.523Z,18.69
2022-08-19T21:57:11.122Z,18.64
2022-08-19T21:59:43.524Z,18.67
2022-08-19T22:02:21.072Z,18.61
2022-08-19T22:04:52.757Z,18.62
2022-08-19T22:07:25.145Z,18.58
2022-08-19T22:09:56.699Z,18.66
2022-08-19T22:12:28.885Z,18.69
2022-08-19T22:15:01.125Z,18.61
2022-08-19T22:17:34.481Z,18.63
2022-08-19T22:20:07.670Z,18.70
2022-08-19T22:22:42.520Z,18.61
2022-08-19T22:25:31.125Z,18.55
2022-08-19T22:28:02.001Z,18.57
2022-08-19T22:30:34.330Z,18.55
2022-08-19T22:33:06.635Z,18.56
2022-08-19T22:35:43.551Z,18.51
2022-08-19T22:38:12.786Z,18.53
2022-08-19T22:40:46.344Z,18.54
2022-08-19T22:43:19.079Z,18.47
2022-08-19T22:45:48.523Z,18.45
2022-08-19T22:48:19.314Z,18.40
2022-08-19T22:51:03.236Z,18.41
2022-08-19T22:53:31.741Z,18.36
2022-08-19T22:56:01.495Z,18.33
2022-08-19T22:58:29.819Z,18.28
2022-08-19T23:00:58.040Z,18.26
2022-08-19T23:03:25.983Z,18.26
2022-08-19T23:05:54.023Z,18.20
2022-08-19T23:08:21.839Z,18.19
2022-08-19T23:10:49.900Z,18.15
2022-08-19T23:13:19.620Z,18.15
2022-08-19T23:15:48.958Z,18.06
2022-08-19T23:18:16.851Z,18.06
2022-08-19T23:20:45.939Z,18.00
2022-08-19T23:23:18.736Z,17.98
2022-08-19T23:25:47.586Z,17.96
2022-08-19T23:28:33.048Z,17.90
2022-08-19T23:31:02.377Z,17.84
2022-08-19T23:33:50.913Z,17.84
2022-08-19T23:36:20.587Z,17.84
2022-08-19T23:38:52.033Z,17.78
2022-08-19T23:41:22.343Z,17.77
2022-08-19T23:43:51.372Z,17.76
2022-08-19T23:46:28.353Z,17.72
2022-08-19T23:48:56.641Z,17.68
2022-08-19T23:51:26.868Z,17.67
2022-08-19T23:53:55.210Z,17.69
2022-08-19T23:56:22.946Z,17.70
2022-08-19T23:58:50.949Z,17.71
